sensor_id;sensor_type;location;lat;lon;timestamp;P1;durP1;ratioP1;P2;durP2;ratioP2
5795;SDS011;2924;51.458;7.046;2023-05-07T00:02:01;4.27;;;3.17;;
5795;SDS011;2924;51.458;7.046;2023-05-07T00:04:27;6.33;;;3.90;;
5795;SDS011;2924;51.458;7.046;2023-05-07T00:06:53;6.93;;;4.50;;
5795;SDS011;2924;51.458;7.046;2023-05-07T00:09:18;8.40;;;5.50;;
5795;SDS011;2924;51.458;7.046;2023-05-07T00:11:44;7.37;;;6.00;;
5795;SDS011;2924;51.458;7.046;2023-05-07T00:14:10;7.93;;;6.40;;
5795;SDS011;2924;51.458;7.046;2023-05-07T00:16:35;10.50;;;7.60;;
5795;SDS011;2924;51.458;7.046;2023-05-07T00:19:01;10.70;;;6.83;;
5795;SDS011;2924;51.458;7.046;2023-05-07T00:21:26;8.00;;;7.20;;
5795;SDS011;2924;51.458;7.046;2023-05-07T00:23:52;8.27;;;7.10;;
5795;SDS011;2924;51.458;7.046;2023-05-07T00:26:18;10.73;;;8.30;;
5795;SDS011;2924;51.458;7.046;2023-05-07T00:28:44;13.67;;;7.90;;
5795;SDS011;2924;51.458;7.046;2023-05-07T00:31:09;9.67;;;7.47;;
5795;SDS011;2924;51.458;7.046;2023-05-07T00:33:35;8.60;;;7.30;;
5795;SDS011;2924;51.458;7.046;2023-05-07T00:36:00;9.20;;;6.70;;
5795;SDS011;2924;51.458;7.046;2023-05-07T00:38:26;11.70;;;8.50;;
5795;SDS011;2924;51.458;7.046;2023-05-07T00:40:52;9.33;;;8.33;;
5795;SDS011;2924;51.458;7.046;2023-05-07T00:43:18;13.33;;;8.60;;
5795;SDS011;2924;51.458;7.046;2023-05-07T00:45:43;11.27;;;8.73;;
5795;SDS011;2924;51.458;7.046;2023-05-07T00:48:09;19.23;;;10.23;;
5795;SDS011;2924;51.458;7.046;2023-05-07T00:50:35;14.47;;;10.30;;
5795;SDS011;2924;51.458;7.046;2023-05-07T00:53:00;15.10;;;10.60;;
5795;SDS011;2924;51.458;7.046;2023-05-07T00:55:26;13.97;;;11.30;;
5795;SDS011;2924;51.458;7.046;2023-05-07T00:57:52;13.10;;;11.70;;
5795;SDS011;2924;51.458;7.046;2023-05-07T01:00:18;16.03;;;12.40;;
5795;SDS011;2924;51.458;7.046;2023-05-07T01:02:45;18.23;;;13.67;;
5795;SDS011;2924;51.458;7.046;2023-05-07T01:05:12;16.87;;;12.50;;
5795;SDS011;2924;51.458;7.046;2023-05-07T01:07:39;15.73;;;12.77;;
5795;SDS011;2924;51.458;7.046;2023-05-07T01:10:07;23.13;;;14.10;;
5795;SDS011;2924;51.458;7.046;2023-05-07T01:12:34;19.63;;;14.30;;
5795;SDS011;2924;51.458;7.046;2023-05-07T01:15:01;19.70;;;12.90;;
5795;SDS011;2924;51.458;7.046;2023-05-07T01:17:28;18.80;;;14.07;;
5795;SDS011;2924;51.458;7.046;2023-05-07T01:19:54;20.63;;;13.10;;
5795;SDS011;2924;51.458;7.046;2023-05-07T01:22:29;17.37;;;13.37;;
5795;SDS011;2924;51.458;7.046;2023-05-07T01:24:57;18.50;;;14.57;;
5795;SDS011;2924;51.458;7.046;2023-05-07T01:27:24;17.77;;;14.20;;
5795;SDS011;2924;51.458;7.046;2023-05-07T01:29:50;18.30;;;12.60;;
5795;SDS011;2924;51.458;7.046;2023-05-07T01:32:15;18.10;;;13.30;;
5795;SDS011;2924;51.458;7.046;2023-05-07T01:34:45;16.77;;;11.70;;
5795;SDS011;2924;51.458;7.046;2023-05-07T01:37:13;13.90;;;11.20;;
5795;SDS011;2924;51.458;7.046;2023-05-07T01:39:39;18.53;;;11.70;;
5795;SDS011;2924;51.458;7.046;2023-05-07T01:42:05;18.37;;;11.70;;
5795;SDS011;2924;51.458;7.046;2023-05-07T01:44:30;13.20;;;10.57;;
5795;SDS011;2924;51.458;7.046;2023-05-07T01:46:57;14.83;;;11.13;;
5795;SDS011;2924;51.458;7.046;2023-05-07T01:49:23;13.33;;;11.50;;
5795;SDS011;2924;51.458;7.046;2023-05-07T01:51:49;11.90;;;9.83;;
5795;SDS011;2924;51.458;7.046;2023-05-07T01:54:15;17.83;;;11.60;;
5795;SDS011;2924;51.458;7.046;2023-05-07T01:56:41;14.10;;;10.70;;
5795;SDS011;2924;51.458;7.046;2023-05-07T01:59:07;12.50;;;10.87;;
5795;SDS011;2924;51.458;7.046;2023-05-07T02:01:32;13.27;;;11.57;;
5795;SDS011;2924;51.458;7.046;2023-05-07T02:03:58;11.53;;;10.33;;
5795;SDS011;2924;51.458;7.046;2023-05-07T02:06:23;16.57;;;10.80;;
5795;SDS011;2924;51.458;7.046;2023-05-07T02:08:49;16.23;;;10.63;;
5795;SDS011;2924;51.458;7.046;2023-05-07T02:11:15;13.37;;;10.90;;
5795;SDS011;2924;51.458;7.046;2023-05-07T02:13:41;14.17;;;10.83;;
5795;SDS011;2924;51.458;7.046;2023-05-07T02:16:06;14.47;;;11.33;;
5795;SDS011;2924;51.458;7.046;2023-05-07T02:18:32;20.00;;;10.93;;
5795;SDS011;2924;51.458;7.046;2023-05-07T02:20:58;13.87;;;10.87;;
5795;SDS011;2924;51.458;7.046;2023-05-07T02:23:23;14.80;;;11.87;;
5795;SDS011;2924;51.458;7.046;2023-05-07T02:25:49;17.90;;;11.00;;
5795;SDS011;2924;51.458;7.046;2023-05-07T02:28:15;13.10;;;10.40;;
5795;SDS011;2924;51.458;7.046;2023-05-07T02:30:41;15.77;;;11.23;;
5795;SDS011;2924;51.458;7.046;2023-05-07T02:33:06;12.93;;;10.40;;
5795;SDS011;2924;51.458;7.046;2023-05-07T02:35:33;11.47;;;9.63;;
5795;SDS011;2924;51.458;7.046;2023-05-07T02:37:59;15.40;;;10.70;;
5795;SDS011;2924;51.458;7.046;2023-05-07T02:40:24;13.03;;;9.90;;
5795;SDS011;2924;51.458;7.046;2023-05-07T02:42:50;22.40;;;10.57;;
5795;SDS011;2924;51.458;7.046;2023-05-07T02:45:15;15.10;;;10.63;;
5795;SDS011;2924;51.458;7.046;2023-05-07T02:47:41;16.90;;;12.27;;
5795;SDS011;2924;51.458;7.046;2023-05-07T02:50:06;14.13;;;11.70;;
5795;SDS011;2924;51.458;7.046;2023-05-07T02:52:32;16.50;;;11.40;;
5795;SDS011;2924;51.458;7.046;2023-05-07T02:54:58;13.20;;;11.30;;
5795;SDS011;2924;51.458;7.046;2023-05-07T02:57:23;17.83;;;12.17;;
5795;SDS011;2924;51.458;7.046;2023-05-07T02:59:49;14.93;;;12.80;;
5795;SDS011;2924;51.458;7.046;2023-05-07T03:02:15;18.70;;;13.90;;
5795;SDS011;2924;51.458;7.046;2023-05-07T03:04:41;23.43;;;14.13;;
5795;SDS011;2924;51.458;7.046;2023-05-07T03:07:07;23.50;;;16.10;;
5795;SDS011;2924;51.458;7.046;2023-05-07T03:09:32;23.43;;;16.57;;
5795;SDS011;2924;51.458;7.046;2023-05-07T03:11:58;20.40;;;16.23;;
5795;SDS011;2924;51.458;7.046;2023-05-07T03:14:24;25.17;;;17.47;;
5795;SDS011;2924;51.458;7.046;2023-05-07T03:16:49;22.53;;;16.63;;
5795;SDS011;2924;51.458;7.046;2023-05-07T03:19:15;26.40;;;17.07;;
5795;SDS011;2924;51.458;7.046;2023-05-07T03:21:40;24.57;;;17.50;;
5795;SDS011;2924;51.458;7.046;2023-05-07T03:24:06;28.10;;;16.60;;
5795;SDS011;2924;51.458;7.046;2023-05-07T03:26:32;26.83;;;18.93;;
5795;SDS011;2924;51.458;7.046;2023-05-07T03:28:57;28.70;;;22.00;;
5795;SDS011;2924;51.458;7.046;2023-05-07T03:31:23;25.57;;;20.13;;
5795;SDS011;2924;51.458;7.046;2023-05-07T03:33:50;30.20;;;18.87;;
5795;SDS011;2924;51.458;7.046;2023-05-07T03:36:17;27.33;;;21.17;;
5795;SDS011;2924;51.458;7.046;2023-05-07T03:38:42;38.17;;;23.40;;
5795;SDS011;2924;51.458;7.046;2023-05-07T03:41:08;36.77;;;24.47;;
5795;SDS011;2924;51.458;7.046;2023-05-07T03:43:33;35.50;;;26.97;;
5795;SDS011;2924;51.458;7.046;2023-05-07T03:45:59;42.07;;;28.60;;
5795;SDS011;2924;51.458;7.046;2023-05-07T03:48:25;46.47;;;27.50;;
5795;SDS011;2924;51.458;7.046;2023-05-07T03:50:50;44.20;;;28.33;;
5795;SDS011;2924;51.458;7.046;2023-05-07T03:53:16;42.80;;;28.20;;
5795;SDS011;2924;51.458;7.046;2023-05-07T03:55:42;41.77;;;29.97;;
5795;SDS011;2924;51.458;7.046;2023-05-07T03:58:07;41.37;;;29.23;;
5795;SDS011;2924;51.458;7.046;2023-05-07T04:00:33;42.63;;;29.90;;
5795;SDS011;2924;51.458;7.046;2023-05-07T04:03:03;45.60;;;31.80;;
5795;SDS011;2924;51.458;7.046;2023-05-07T04:05:29;42.73;;;29.73;;
5795;SDS011;2924;51.458;7.046;2023-05-07T04:07:55;43.37;;;30.57;;
5795;SDS011;2924;51.458;7.046;2023-05-07T04:10:21;48.43;;;32.77;;
5795;SDS011;2924;51.458;7.046;2023-05-07T04:12:46;47.93;;;32.40;;
5795;SDS011;2924;51.458;7.046;2023-05-07T04:15:12;44.77;;;32.00;;
5795;SDS011;2924;51.458;7.046;2023-05-07T04:17:37;45.10;;;33.70;;
5795;SDS011;2924;51.458;7.046;2023-05-07T04:20:03;45.43;;;32.43;;
5795;SDS011;2924;51.458;7.046;2023-05-07T04:22:29;45.90;;;32.07;;
5795;SDS011;2924;51.458;7.046;2023-05-07T04:24:55;47.73;;;34.17;;
5795;SDS011;2924;51.458;7.046;2023-05-07T04:27:21;50.40;;;33.80;;
5795;SDS011;2924;51.458;7.046;2023-05-07T04:29:46;47.07;;;33.20;;
5795;SDS011;2924;51.458;7.046;2023-05-07T04:32:12;47.90;;;33.77;;
5795;SDS011;2924;51.458;7.046;2023-05-07T04:34:38;48.13;;;35.57;;
5795;SDS011;2924;51.458;7.046;2023-05-07T04:37:03;51.37;;;35.07;;
5795;SDS011;2924;51.458;7.046;2023-05-07T04:39:29;50.03;;;35.70;;
5795;SDS011;2924;51.458;7.046;2023-05-07T04:41:55;52.50;;;36.67;;
5795;SDS011;2924;51.458;7.046;2023-05-07T04:44:20;57.10;;;37.20;;
5795;SDS011;2924;51.458;7.046;2023-05-07T04:46:46;50.97;;;36.60;;
5795;SDS011;2924;51.458;7.046;2023-05-07T04:49:11;61.33;;;36.80;;
5795;SDS011;2924;51.458;7.046;2023-05-07T04:51:37;56.97;;;36.00;;
5795;SDS011;2924;51.458;7.046;2023-05-07T04:54:03;57.20;;;36.87;;
5795;SDS011;2924;51.458;7.046;2023-05-07T04:56:29;49.27;;;35.83;;
5795;SDS011;2924;51.458;7.046;2023-05-07T04:58:54;44.17;;;33.83;;
5795;SDS011;2924;51.458;7.046;2023-05-07T05:01:20;47.83;;;32.77;;
5795;SDS011;2924;51.458;7.046;2023-05-07T05:03:46;48.27;;;34.40;;
5795;SDS011;2924;51.458;7.046;2023-05-07T05:06:11;43.10;;;30.97;;
5795;SDS011;2924;51.458;7.046;2023-05-07T05:08:37;41.50;;;30.47;;
5795;SDS011;2924;51.458;7.046;2023-05-07T05:11:03;40.73;;;29.60;;
5795;SDS011;2924;51.458;7.046;2023-05-07T05:13:29;35.70;;;27.87;;
5795;SDS011;2924;51.458;7.046;2023-05-07T05:15:55;36.20;;;26.90;;
5795;SDS011;2924;51.458;7.046;2023-05-07T05:18:21;33.23;;;25.87;;
5795;SDS011;2924;51.458;7.046;2023-05-07T05:20:46;33.30;;;26.20;;
5795;SDS011;2924;51.458;7.046;2023-05-07T05:23:12;27.10;;;23.10;;
5795;SDS011;2924;51.458;7.046;2023-05-07T05:25:37;27.13;;;22.17;;
5795;SDS011;2924;51.458;7.046;2023-05-07T05:28:04;27.23;;;23.63;;
5795;SDS011;2924;51.458;7.046;2023-05-07T05:30:29;30.23;;;19.80;;
5795;SDS011;2924;51.458;7.046;2023-05-07T05:32:55;24.47;;;18.70;;
5795;SDS011;2924;51.458;7.046;2023-05-07T05:35:20;23.57;;;17.87;;
5795;SDS011;2924;51.458;7.046;2023-05-07T05:37:46;19.57;;;16.83;;
5795;SDS011;2924;51.458;7.046;2023-05-07T05:40:13;20.90;;;16.20;;
5795;SDS011;2924;51.458;7.046;2023-05-07T05:42:38;18.47;;;14.83;;
5795;SDS011;2924;51.458;7.046;2023-05-07T05:45:04;19.10;;;13.30;;
5795;SDS011;2924;51.458;7.046;2023-05-07T05:47:30;19.43;;;12.77;;
5795;SDS011;2924;51.458;7.046;2023-05-07T05:49:56;13.13;;;11.70;;
5795;SDS011;2924;51.458;7.046;2023-05-07T05:52:21;14.30;;;10.33;;
5795;SDS011;2924;51.458;7.046;2023-05-07T05:54:48;13.80;;;10.67;;
5795;SDS011;2924;51.458;7.046;2023-05-07T05:57:14;15.13;;;10.70;;
5795;SDS011;2924;51.458;7.046;2023-05-07T05:59:40;16.00;;;10.20;;
5795;SDS011;2924;51.458;7.046;2023-05-07T06:02:06;9.83;;;8.87;;
5795;SDS011;2924;51.458;7.046;2023-05-07T06:04:32;10.97;;;8.63;;
5795;SDS011;2924;51.458;7.046;2023-05-07T06:06:57;12.20;;;9.37;;
5795;SDS011;2924;51.458;7.046;2023-05-07T06:09:23;9.43;;;8.57;;
5795;SDS011;2924;51.458;7.046;2023-05-07T06:11:48;8.10;;;7.30;;
5795;SDS011;2924;51.458;7.046;2023-05-07T06:14:14;12.00;;;7.23;;
5795;SDS011;2924;51.458;7.046;2023-05-07T06:16:40;20.03;;;7.27;;
5795;SDS011;2924;51.458;7.046;2023-05-07T06:19:05;10.20;;;6.70;;
5795;SDS011;2924;51.458;7.046;2023-05-07T06:21:31;7.17;;;6.50;;
5795;SDS011;2924;51.458;7.046;2023-05-07T06:23:56;9.57;;;6.00;;
5795;SDS011;2924;51.458;7.046;2023-05-07T06:26:22;7.40;;;5.77;;
5795;SDS011;2924;51.458;7.046;2023-05-07T06:28:48;6.63;;;5.63;;
5795;SDS011;2924;51.458;7.046;2023-05-07T06:31:14;6.07;;;5.47;;
5795;SDS011;2924;51.458;7.046;2023-05-07T06:33:40;6.70;;;4.90;;
5795;SDS011;2924;51.458;7.046;2023-05-07T06:36:06;6.00;;;4.60;;
5795;SDS011;2924;51.458;7.046;2023-05-07T06:38:32;5.80;;;4.20;;
5795;SDS011;2924;51.458;7.046;2023-05-07T06:40:58;9.43;;;4.70;;
5795;SDS011;2924;51.458;7.046;2023-05-07T06:43:24;5.40;;;4.93;;
5795;SDS011;2924;51.458;7.046;2023-05-07T06:45:50;3.97;;;3.67;;
5795;SDS011;2924;51.458;7.046;2023-05-07T06:48:15;8.83;;;3.90;;
5795;SDS011;2924;51.458;7.046;2023-05-07T06:50:41;5.50;;;4.20;;
5795;SDS011;2924;51.458;7.046;2023-05-07T06:53:07;5.73;;;4.07;;
5795;SDS011;2924;51.458;7.046;2023-05-07T06:55:32;4.90;;;4.27;;
5795;SDS011;2924;51.458;7.046;2023-05-07T06:57:58;3.87;;;3.57;;
5795;SDS011;2924;51.458;7.046;2023-05-07T07:00:26;3.90;;;3.50;;
5795;SDS011;2924;51.458;7.046;2023-05-07T07:02:52;3.80;;;3.30;;
5795;SDS011;2924;51.458;7.046;2023-05-07T07:05:18;4.40;;;3.90;;
5795;SDS011;2924;51.458;7.046;2023-05-07T07:07:43;3.73;;;3.40;;
5795;SDS011;2924;51.458;7.046;2023-05-07T07:10:09;4.90;;;3.83;;
5795;SDS011;2924;51.458;7.046;2023-05-07T07:12:35;6.53;;;3.30;;
5795;SDS011;2924;51.458;7.046;2023-05-07T07:15:00;4.00;;;2.87;;
5795;SDS011;2924;51.458;7.046;2023-05-07T07:17:27;8.00;;;3.03;;
5795;SDS011;2924;51.458;7.046;2023-05-07T07:19:53;2.80;;;2.60;;
5795;SDS011;2924;51.458;7.046;2023-05-07T07:22:19;3.03;;;2.83;;
5795;SDS011;2924;51.458;7.046;2023-05-07T07:24:44;4.57;;;2.93;;
5795;SDS011;2924;51.458;7.046;2023-05-07T07:27:10;4.40;;;3.00;;
5795;SDS011;2924;51.458;7.046;2023-05-07T07:29:35;2.77;;;2.40;;
5795;SDS011;2924;51.458;7.046;2023-05-07T07:32:01;9.87;;;3.37;;
5795;SDS011;2924;51.458;7.046;2023-05-07T07:34:27;6.33;;;3.10;;
5795;SDS011;2924;51.458;7.046;2023-05-07T07:36:52;4.67;;;2.77;;
5795;SDS011;2924;51.458;7.046;2023-05-07T07:39:18;4.40;;;2.77;;
5795;SDS011;2924;51.458;7.046;2023-05-07T07:41:43;4.83;;;3.10;;
5795;SDS011;2924;51.458;7.046;2023-05-07T07:44:09;7.50;;;3.67;;
5795;SDS011;2924;51.458;7.046;2023-05-07T07:46:37;7.30;;;3.20;;
5795;SDS011;2924;51.458;7.046;2023-05-07T07:49:03;2.83;;;2.63;;
5795;SDS011;2924;51.458;7.046;2023-05-07T07:51:29;5.00;;;3.40;;
5795;SDS011;2924;51.458;7.046;2023-05-07T07:53:55;3.17;;;2.40;;
5795;SDS011;2924;51.458;7.046;2023-05-07T07:56:22;2.97;;;2.77;;
5795;SDS011;2924;51.458;7.046;2023-05-07T07:58:48;6.97;;;2.50;;
5795;SDS011;2924;51.458;7.046;2023-05-07T08:01:13;3.13;;;2.70;;
5795;SDS011;2924;51.458;7.046;2023-05-07T08:03:39;4.23;;;2.70;;
5795;SDS011;2924;51.458;7.046;2023-05-07T08:06:05;4.70;;;2.77;;
5795;SDS011;2924;51.458;7.046;2023-05-07T08:08:31;4.60;;;2.27;;
5795;SDS011;2924;51.458;7.046;2023-05-07T08:10:56;2.97;;;2.00;;
5795;SDS011;2924;51.458;7.046;2023-05-07T08:13:22;4.43;;;2.50;;
5795;SDS011;2924;51.458;7.046;2023-05-07T08:15:47;4.97;;;2.60;;
5795;SDS011;2924;51.458;7.046;2023-05-07T08:18:13;2.37;;;2.17;;
5795;SDS011;2924;51.458;7.046;2023-05-07T08:20:38;2.30;;;2.00;;
5795;SDS011;2924;51.458;7.046;2023-05-07T08:23:04;2.90;;;2.00;;
5795;SDS011;2924;51.458;7.046;2023-05-07T08:25:32;6.53;;;2.10;;
5795;SDS011;2924;51.458;7.046;2023-05-07T08:27:59;3.17;;;2.13;;
5795;SDS011;2924;51.458;7.046;2023-05-07T08:30:25;2.23;;;2.13;;
5795;SDS011;2924;51.458;7.046;2023-05-07T08:32:51;3.50;;;3.10;;
5795;SDS011;2924;51.458;7.046;2023-05-07T08:35:16;6.13;;;2.23;;
5795;SDS011;2924;51.458;7.046;2023-05-07T08:37:42;2.60;;;2.30;;
5795;SDS011;2924;51.458;7.046;2023-05-07T08:40:09;2.00;;;1.90;;
5795;SDS011;2924;51.458;7.046;2023-05-07T08:42:35;4.93;;;2.47;;
5795;SDS011;2924;51.458;7.046;2023-05-07T08:45:04;5.97;;;2.83;;
5795;SDS011;2924;51.458;7.046;2023-05-07T08:47:46;2.23;;;2.13;;
5795;SDS011;2924;51.458;7.046;2023-05-07T08:50:13;2.87;;;1.93;;
5795;SDS011;2924;51.458;7.046;2023-05-07T08:52:39;2.50;;;1.90;;
5795;SDS011;2924;51.458;7.046;2023-05-07T08:55:05;2.57;;;2.27;;
5795;SDS011;2924;51.458;7.046;2023-05-07T08:57:32;2.90;;;1.93;;
5795;SDS011;2924;51.458;7.046;2023-05-07T08:59:58;3.60;;;1.77;;
5795;SDS011;2924;51.458;7.046;2023-05-07T09:02:23;3.10;;;2.30;;
5795;SDS011;2924;51.458;7.046;2023-05-07T09:04:49;2.80;;;2.10;;
5795;SDS011;2924;51.458;7.046;2023-05-07T09:07:15;3.60;;;2.13;;
5795;SDS011;2924;51.458;7.046;2023-05-07T09:09:41;3.27;;;2.70;;
5795;SDS011;2924;51.458;7.046;2023-05-07T09:12:08;2.83;;;2.40;;
5795;SDS011;2924;51.458;7.046;2023-05-07T09:14:34;2.90;;;2.33;;
5795;SDS011;2924;51.458;7.046;2023-05-07T09:17:00;3.00;;;2.57;;
5795;SDS011;2924;51.458;7.046;2023-05-07T09:19:26;2.70;;;2.23;;
5795;SDS011;2924;51.458;7.046;2023-05-07T09:22:02;2.53;;;2.33;;
5795;SDS011;2924;51.458;7.046;2023-05-07T09:24:28;3.27;;;2.40;;
5795;SDS011;2924;51.458;7.046;2023-05-07T09:26:59;3.60;;;3.20;;
5795;SDS011;2924;51.458;7.046;2023-05-07T09:29:26;3.00;;;2.80;;
5795;SDS011;2924;51.458;7.046;2023-05-07T09:31:53;3.28;;;1.95;;
5795;SDS011;2924;51.458;7.046;2023-05-07T09:34:19;3.13;;;2.03;;
5795;SDS011;2924;51.458;7.046;2023-05-07T09:36:45;4.50;;;2.10;;
5795;SDS011;2924;51.458;7.046;2023-05-07T09:39:11;3.60;;;1.98;;
5795;SDS011;2924;51.458;7.046;2023-05-07T09:41:44;2.45;;;1.80;;
5795;SDS011;2924;51.458;7.046;2023-05-07T09:44:10;3.70;;;2.95;;
5795;SDS011;2924;51.458;7.046;2023-05-07T09:46:36;3.88;;;2.42;;
5795;SDS011;2924;51.458;7.046;2023-05-07T09:49:03;4.20;;;2.33;;
5795;SDS011;2924;51.458;7.046;2023-05-07T09:51:38;5.47;;;2.25;;
5795;SDS011;2924;51.458;7.046;2023-05-07T09:54:08;3.30;;;2.45;;
5795;SDS011;2924;51.458;7.046;2023-05-07T09:56:35;2.17;;;2.05;;
5795;SDS011;2924;51.458;7.046;2023-05-07T09:59:02;3.42;;;1.50;;
5795;SDS011;2924;51.458;7.046;2023-05-07T10:01:29;3.88;;;2.40;;
5795;SDS011;2924;51.458;7.046;2023-05-07T10:03:56;2.83;;;2.63;;
5795;SDS011;2924;51.458;7.046;2023-05-07T10:06:24;2.55;;;2.20;;
5795;SDS011;2924;51.458;7.046;2023-05-07T10:08:51;3.35;;;2.22;;
5795;SDS011;2924;51.458;7.046;2023-05-07T10:11:17;2.70;;;2.03;;
5795;SDS011;2924;51.458;7.046;2023-05-07T10:13:44;2.00;;;1.90;;
5795;SDS011;2924;51.458;7.046;2023-05-07T10:16:12;1.98;;;1.88;;
5795;SDS011;2924;51.458;7.046;2023-05-07T10:18:40;6.78;;;2.38;;
5795;SDS011;2924;51.458;7.046;2023-05-07T10:21:23;2.40;;;1.88;;
5795;SDS011;2924;51.458;7.046;2023-05-07T10:23:58;1.88;;;1.55;;
5795;SDS011;2924;51.458;7.046;2023-05-07T10:26:28;2.22;;;2.08;;
5795;SDS011;2924;51.458;7.046;2023-05-07T10:28:59;2.60;;;2.25;;
5795;SDS011;2924;51.458;7.046;2023-05-07T10:34:21;4.97;;;2.08;;
5795;SDS011;2924;51.458;7.046;2023-05-07T10:36:57;10.20;;;2.30;;
5795;SDS011;2924;51.458;7.046;2023-05-07T10:39:23;2.30;;;2.10;;
5795;SDS011;2924;51.458;7.046;2023-05-07T10:41:49;2.75;;;2.30;;
5795;SDS011;2924;51.458;7.046;2023-05-07T10:44:24;8.80;;;2.90;;
5795;SDS011;2924;51.458;7.046;2023-05-07T10:52:19;3.50;;;2.65;;
5795;SDS011;2924;51.458;7.046;2023-05-07T10:57:43;2.17;;;2.03;;
5795;SDS011;2924;51.458;7.046;2023-05-07T11:05:25;2.42;;;2.30;;
5795;SDS011;2924;51.458;7.046;2023-05-07T11:07:55;4.85;;;1.90;;
5795;SDS011;2924;51.458;7.046;2023-05-07T11:10:21;3.63;;;2.95;;
5795;SDS011;2924;51.458;7.046;2023-05-07T11:12:50;4.45;;;2.53;;
5795;SDS011;2924;51.458;7.046;2023-05-07T11:15:33;3.67;;;2.50;;
5795;SDS011;2924;51.458;7.046;2023-05-07T11:18:00;3.35;;;2.00;;
5795;SDS011;2924;51.458;7.046;2023-05-07T11:26:05;3.97;;;2.45;;
5795;SDS011;2924;51.458;7.046;2023-05-07T11:28:36;2.30;;;2.20;;
5795;SDS011;2924;51.458;7.046;2023-05-07T11:31:03;3.40;;;2.40;;
5795;SDS011;2924;51.458;7.046;2023-05-07T11:33:33;5.23;;;2.60;;
5795;SDS011;2924;51.458;7.046;2023-05-07T11:35:59;3.43;;;3.13;;
5795;SDS011;2924;51.458;7.046;2023-05-07T11:38:27;3.67;;;2.83;;
5795;SDS011;2924;51.458;7.046;2023-05-07T11:40:55;3.63;;;2.43;;
5795;SDS011;2924;51.458;7.046;2023-05-07T11:43:22;3.23;;;2.33;;
5795;SDS011;2924;51.458;7.046;2023-05-07T11:45:47;3.90;;;3.13;;
5795;SDS011;2924;51.458;7.046;2023-05-07T11:48:14;3.50;;;2.40;;
5795;SDS011;2924;51.458;7.046;2023-05-07T11:50:53;8.50;;;2.70;;
5795;SDS011;2924;51.458;7.046;2023-05-07T11:53:25;3.45;;;3.15;;
5795;SDS011;2924;51.458;7.046;2023-05-07T11:55:52;2.92;;;2.72;;
5795;SDS011;2924;51.458;7.046;2023-05-07T11:58:20;2.53;;;2.05;;
5795;SDS011;2924;51.458;7.046;2023-05-07T12:00:50;6.05;;;2.72;;
5795;SDS011;2924;51.458;7.046;2023-05-07T12:03:17;3.50;;;3.20;;
5795;SDS011;2924;51.458;7.046;2023-05-07T12:05:43;3.17;;;2.40;;
5795;SDS011;2924;51.458;7.046;2023-05-07T12:08:13;3.25;;;2.95;;
5795;SDS011;2924;51.458;7.046;2023-05-07T12:10:48;3.33;;;2.80;;
5795;SDS011;2924;51.458;7.046;2023-05-07T12:13:21;5.80;;;3.25;;
5795;SDS011;2924;51.458;7.046;2023-05-07T12:15:52;3.05;;;2.85;;
5795;SDS011;2924;51.458;7.046;2023-05-07T12:18:18;3.40;;;3.10;;
5795;SDS011;2924;51.458;7.046;2023-05-07T12:20:45;4.20;;;3.80;;
5795;SDS011;2924;51.458;7.046;2023-05-07T12:23:12;3.50;;;3.20;;
5795;SDS011;2924;51.458;7.046;2023-05-07T12:25:38;4.00;;;3.60;;
5795;SDS011;2924;51.458;7.046;2023-05-07T12:28:05;4.10;;;2.73;;
5795;SDS011;2924;51.458;7.046;2023-05-07T12:30:53;5.97;;;3.07;;
5795;SDS011;2924;51.458;7.046;2023-05-07T12:33:19;4.87;;;3.83;;
5795;SDS011;2924;51.458;7.046;2023-05-07T12:35:48;3.10;;;2.90;;
5795;SDS011;2924;51.458;7.046;2023-05-07T12:38:15;4.87;;;3.70;;
5795;SDS011;2924;51.458;7.046;2023-05-07T12:40:49;9.63;;;3.60;;
5795;SDS011;2924;51.458;7.046;2023-05-07T12:45:49;9.97;;;3.70;;
5795;SDS011;2924;51.458;7.046;2023-05-07T12:48:15;5.07;;;4.03;;
5795;SDS011;2924;51.458;7.046;2023-05-07T12:50:41;6.13;;;4.80;;
5795;SDS011;2924;51.458;7.046;2023-05-07T12:53:08;6.73;;;4.17;;
5795;SDS011;2924;51.458;7.046;2023-05-07T12:55:42;5.73;;;4.10;;
5795;SDS011;2924;51.458;7.046;2023-05-07T12:58:45;5.27;;;3.50;;
5795;SDS011;2924;51.458;7.046;2023-05-07T13:01:05;5.50;;;4.57;;
5795;SDS011;2924;51.458;7.046;2023-05-07T13:03:33;9.40;;;5.30;;
5795;SDS011;2924;51.458;7.046;2023-05-07T13:06:00;4.50;;;3.47;;
5795;SDS011;2924;51.458;7.046;2023-05-07T13:08:34;3.97;;;3.57;;
5795;SDS011;2924;51.458;7.046;2023-05-07T13:11:07;4.83;;;4.03;;
5795;SDS011;2924;51.458;7.046;2023-05-07T13:13:34;7.73;;;5.07;;
5795;SDS011;2924;51.458;7.046;2023-05-07T13:16:01;7.80;;;4.93;;
5795;SDS011;2924;51.458;7.046;2023-05-07T13:18:28;8.70;;;4.23;;
5795;SDS011;2924;51.458;7.046;2023-05-07T13:20:55;5.10;;;4.40;;
5795;SDS011;2924;51.458;7.046;2023-05-07T13:23:21;4.10;;;3.80;;
5795;SDS011;2924;51.458;7.046;2023-05-07T13:25:47;8.97;;;4.10;;
5795;SDS011;2924;51.458;7.046;2023-05-07T13:28:13;4.83;;;4.43;;
5795;SDS011;2924;51.458;7.046;2023-05-07T13:30:39;4.50;;;4.10;;
5795;SDS011;2924;51.458;7.046;2023-05-07T13:33:05;13.60;;;4.70;;
5795;SDS011;2924;51.458;7.046;2023-05-07T13:35:31;9.70;;;5.03;;
5795;SDS011;2924;51.458;7.046;2023-05-07T13:37:57;8.00;;;4.70;;
5795;SDS011;2924;51.458;7.046;2023-05-07T13:40:23;4.90;;;4.40;;
5795;SDS011;2924;51.458;7.046;2023-05-07T13:42:49;10.20;;;4.13;;
5795;SDS011;2924;51.458;7.046;2023-05-07T13:45:15;7.00;;;5.00;;
5795;SDS011;2924;51.458;7.046;2023-05-07T13:47:42;8.23;;;3.93;;
5795;SDS011;2924;51.458;7.046;2023-05-07T13:50:08;5.50;;;3.83;;
5795;SDS011;2924;51.458;7.046;2023-05-07T13:52:36;4.30;;;3.93;;
5795;SDS011;2924;51.458;7.046;2023-05-07T13:55:02;7.63;;;4.90;;
5795;SDS011;2924;51.458;7.046;2023-05-07T13:57:28;4.37;;;3.97;;
5795;SDS011;2924;51.458;7.046;2023-05-07T13:59:54;6.50;;;5.20;;
5795;SDS011;2924;51.458;7.046;2023-05-07T14:02:20;7.10;;;5.23;;
5795;SDS011;2924;51.458;7.046;2023-05-07T14:04:45;6.70;;;5.73;;
5795;SDS011;2924;51.458;7.046;2023-05-07T14:07:11;11.10;;;5.93;;
5795;SDS011;2924;51.458;7.046;2023-05-07T14:09:37;6.27;;;5.67;;
5795;SDS011;2924;51.458;7.046;2023-05-07T14:12:02;6.17;;;5.57;;
5795;SDS011;2924;51.458;7.046;2023-05-07T14:14:28;7.47;;;5.67;;
5795;SDS011;2924;51.458;7.046;2023-05-07T14:16:54;10.53;;;6.73;;
5795;SDS011;2924;51.458;7.046;2023-05-07T14:19:19;11.57;;;8.73;;
5795;SDS011;2924;51.458;7.046;2023-05-07T14:21:47;8.80;;;7.70;;
5795;SDS011;2924;51.458;7.046;2023-05-07T14:24:13;9.90;;;7.40;;
5795;SDS011;2924;51.458;7.046;2023-05-07T14:26:38;7.83;;;7.03;;
5795;SDS011;2924;51.458;7.046;2023-05-07T14:29:04;15.40;;;7.63;;
5795;SDS011;2924;51.458;7.046;2023-05-07T14:31:30;9.60;;;6.90;;
5795;SDS011;2924;51.458;7.046;2023-05-07T14:33:55;12.37;;;8.40;;
5795;SDS011;2924;51.458;7.046;2023-05-07T14:36:22;17.20;;;8.07;;
5795;SDS011;2924;51.458;7.046;2023-05-07T14:38:51;14.80;;;8.20;;
5795;SDS011;2924;51.458;7.046;2023-05-07T14:41:18;9.67;;;8.10;;
5795;SDS011;2924;51.458;7.046;2023-05-07T14:43:45;14.43;;;9.20;;
5795;SDS011;2924;51.458;7.046;2023-05-07T14:46:15;13.10;;;9.27;;
5795;SDS011;2924;51.458;7.046;2023-05-07T14:48:42;17.40;;;9.50;;
5795;SDS011;2924;51.458;7.046;2023-05-07T14:51:09;14.87;;;9.77;;
5795;SDS011;2924;51.458;7.046;2023-05-07T14:53:35;12.67;;;8.87;;
5795;SDS011;2924;51.458;7.046;2023-05-07T14:56:00;10.47;;;8.50;;
5795;SDS011;2924;51.458;7.046;2023-05-07T14:58:26;15.07;;;9.90;;
5795;SDS011;2924;51.458;7.046;2023-05-07T15:00:51;14.00;;;10.10;;
5795;SDS011;2924;51.458;7.046;2023-05-07T15:03:17;20.60;;;11.20;;
5795;SDS011;2924;51.458;7.046;2023-05-07T15:05:43;14.50;;;8.57;;
5795;SDS011;2924;51.458;7.046;2023-05-07T15:08:08;16.50;;;11.53;;
5795;SDS011;2924;51.458;7.046;2023-05-07T15:10:37;11.47;;;9.63;;
5795;SDS011;2924;51.458;7.046;2023-05-07T15:13:06;14.47;;;8.70;;
5795;SDS011;2924;51.458;7.046;2023-05-07T15:15:32;9.93;;;8.57;;
5795;SDS011;2924;51.458;7.046;2023-05-07T15:17:58;10.60;;;7.77;;
5795;SDS011;2924;51.458;7.046;2023-05-07T15:20:25;10.10;;;7.83;;
5795;SDS011;2924;51.458;7.046;2023-05-07T15:22:51;13.50;;;9.40;;
5795;SDS011;2924;51.458;7.046;2023-05-07T15:25:16;10.83;;;8.83;;
5795;SDS011;2924;51.458;7.046;2023-05-07T15:27:42;9.37;;;8.27;;